Startpagina
METAR-TAF:

METAR-TAF

Vliegvelden :

Harare, Zimbabwe

Internationale luchthaven Harare

breedte: 17-55S, lengte: 031-08E, hoogte: 1479 m

Actueel weer

Dit bericht is 2 uur en het 4 minuten geleden gemaakt, om 01:00 UTC
Wind 7 kt uit het oosten
Temperatuur 14°C
Vochtigheid 51%
Druk 1020 hPa
Zicht 10 km of meer
geen wolken onder 1500 m en geen cumulonimbus

METAR: FVHA 240100Z 08007KT CAVOK 14/04 Q1020

Tijdstip: 05:04 (03:04 UTC)

Verwachting

Dit bericht is 5 uur en het 4 minuten geleden gemaakt, om 22:00 UTC
Verwachting geldig van 24 om 00 UTC tot 25 om 06 UTC
Wind 5 kt uit het zuidzuidwesten
Zicht 10 km of meer
geen wolken onder 1500 m en geen cumulonimbus

TAF: FVHA 232200Z 2400/2506 21005KT CAVOK

Waarnemingen en weersverwachtingen van meer dan 4000 vliegvelden (METAR en TAF).

De beschikbare stations zijn de gele en rode punten op de kaart.

Ga met uw muis naar het station om de naam te zien.

Klik dan om waarnemingen en weersverwachtingen te zien.

kaart wijzigen: klik op de groene knoppen met een zwart kruis om in te zoomen, op de groene knop met een streepje om uit te zoomen of op de groene pijlen voor aangrenzende kaarten.


METAR-TAF: